Data for 03/27/2015

Time Sea-Level Adjusted Pressure Absolute Pressure Temperature Relative Humidity Dew Point   
(mb) (inHg) (mb) (inHg) (C) (F) (%) (C) (F)
00:05 1024 30.24 854 25.22 7.9 46.2 58 0.3 32.5
00:10 1024 30.24 854 25.22 8.2 46.7 58 0.5 32.8
00:15 1024 30.24 854 25.22 8.3 46.9 59 0.7 33.3
00:20 1024 30.24 854 25.22 7.7 45.8 61 0.8 33.4
00:25 1024 30.24 854 25.22 7 44.6 64 0.7 33.3
00:30 1024 30.24 854 25.22 6.8 44.3 64 0.6 33
00:35 1024 30.24 854 25.22 6.8 44.2 64 0.4 32.7
00:40 1024 30.24 854 25.22 6.8 44.3 64 0.5 32.8
00:45 1024 30.24 854 25.22 6.5 43.7 66 0.5 33
00:50 1024 30.24 854 25.22 6.7 44 64 0.5 32.9
00:55 1024 30.24 854 25.22 6.6 43.9 65 0.6 33.1
01:00 1024 30.24 854 25.22 6.2 43.1 68 0.7 33.3
01:05 1024 30.24 854 25.22 6.1 42.9 67 0.4 32.7
01:10 1024 30.24 854 25.22 6 42.9 67 0.4 32.7
01:15 1024 30.24 854 25.22 6 42.8 67 0.5 32.9
01:20 1024 30.24 854 25.22 5.8 42.4 68 0.3 32.6
01:25 1024 30.24 854 25.22 5.7 42.3 68 0.3 32.5
01:30 1024 30.24 854 25.22 5.6 42.1 69 0.4 32.6
01:35 1024 30.24 854 25.22 5.6 42.2 68 0.2 32.4
01:40 1024 30.24 854 25.22 5.9 42.6 68 0.5 32.9
01:45 1024 30.24 853 25.19 5.9 42.7 67 0.3 32.6
01:50 1024 30.24 853 25.19 5.9 42.7 67 0.4 32.6
01:55 1024 30.24 853 25.19 5.9 42.6 67 0.3 32.5
02:00 1024 30.24 853 25.19 6 42.8 67 0.3 32.6
02:05 1024 30.24 853 25.19 6 42.7 67 0.3 32.5
02:10 1024 30.24 853 25.19 6 42.9 67 0.3 32.6
02:15 1024 30.24 853 25.19 6 42.9 67 0.4 32.7
02:20 1024 30.24 853 25.19 6.2 43.2 66 0.4 32.7
02:25 1024 30.24 853 25.19 6.2 43.1 66 0.3 32.6
02:30 1024 30.24 853 25.19 6 42.9 66 0.3 32.5
02:35 1024 30.24 853 25.19 6 42.8 66 0.2 32.4
02:40 1024 30.24 853 25.19 6 42.7 67 0.4 32.7
02:45 1024 30.24 853 25.19 5.9 42.6 67 0.3 32.6
02:50 1024 30.24 853 25.19 5.7 42.3 67 0.2 32.3
02:55 1024 30.24 853 25.19 5.6 42.1 68 0.1 32.1
03:00 1024 30.24 853 25.19 5.5 42 67 0 32
03:05 1024 30.24 853 25.19 5.5 41.8 68 0 32
03:10 1024 30.24 853 25.19 5.3 41.6 68 0 32
03:15 1024 30.24 853 25.19 5.1 41.2 69 -0 32
03:20 1024 30.24 853 25.19 5 40.9 70 -0.1 31.9
03:25 1024 30.24 853 25.19 4.8 40.7 71 0 32
03:30 1024 30.24 853 25.19 4.5 40.1 71 -0.2 31.6
03:35 1024 30.24 853 25.19 4.6 40.3 71 -0.2 31.6
03:40 1024 30.24 853 25.19 4.5 40.1 72 -0.2 31.7
03:45 1024 30.24 853 25.19 4.4 39.9 71 -0.3 31.4
03:50 1024 30.24 853 25.19 4.5 40.1 71 -0.4 31.3
03:55 1024 30.24 853 25.19 4.5 40.2 70 -0.4 31.3
04:00 1024 30.24 853 25.19 4.7 40.5 69 -0.4 31.3
04:05 1024 30.24 853 25.19 4.8 40.6 70 -0.2 31.6
04:10 1024 30.24 853 25.19 4.4 39.9 72 -0.3 31.5
04:15 1023 30.21 853 25.19 4.3 39.7 71 -0.4 31.2
04:20 1023 30.21 853 25.19 4.3 39.8 70 -0.6 30.9
04:25 1023 30.21 853 25.19 4.6 40.3 69 -0.6 31
04:30 1023 30.21 853 25.19 4.7 40.4 68 -0.8 30.6
04:35 1023 30.21 853 25.19 4.9 40.8 68 -0.5 31
04:40 1023 30.21 853 25.19 5.1 41.2 65 -0.9 30.4
04:45 1023 30.21 852 25.16 5.3 41.5 66 -0.5 31
04:50 1023 30.21 852 25.16 5.3 41.5 65 -0.7 30.8
04:55 1023 30.21 852 25.16 5.5 41.9 65 -0.6 30.8
05:00 1023 30.21 852 25.16 5.7 42.2 64 -0.5 31
05:05 1023 30.21 852 25.16 5.6 42 65 -0.5 31.2
05:10 1023 30.21 852 25.16 4.9 40.9 67 -0.6 30.9
05:15 1023 30.21 852 25.16 4.4 39.9 70 -0.7 30.8
05:20 1023 30.21 852 25.16 4 39.2 70 -1.1 30.1
05:25 1023 30.21 852 25.16 4 39.1 71 -0.9 30.5
05:30 1023 30.21 852 25.16 4.4 39.8 68 -1.1 30
05:35 1023 30.21 852 25.16 4.6 40.2 67 -1 30.3
05:40 1023 30.21 852 25.16 4.2 39.5 70 -0.8 30.5
05:45 1023 30.21 852 25.16 4.9 40.8 64 -1.3 29.7
05:50 1023 30.21 853 25.19 5.3 41.5 64 -1.1 30.1
05:55 1023 30.21 853 25.19 4.9 40.8 66 -0.9 30.4
06:00 1023 30.21 853 25.19 4.5 40.1 67 -1.1 30
06:05 1023 30.21 853 25.19 4.4 39.9 67 -1.2 29.9
06:10 1023 30.21 853 25.19 4.5 40 65 -1.5 29.3
06:15 1023 30.21 853 25.19 4.7 40.4 65 -1.3 29.6
06:20 1023 30.21 853 25.19 4.7 40.4 64 -1.5 29.4
06:25 1023 30.21 852 25.16 4.6 40.3 65 -1.3 29.6
06:30 1023 30.21 852 25.16 4.3 39.8 66 -1.5 29.3
06:35 1023 30.21 852 25.16 4.4 39.9 66 -1.4 29.4
06:40 1023 30.21 852 25.16 4.4 40 65 -1.5 29.3
06:45 1023 30.21 852 25.16 4.8 40.6 64 -1.5 29.3
06:50 1023 30.21 852 25.16 5.1 41.2 63 -1.4 29.5
06:55 1023 30.21 852 25.16 5 41.1 63 -1.4 29.4
07:00 1023 30.21 852 25.16 5.2 41.3 62 -1.5 29.3
07:05 1023 30.21 852 25.16 5.2 41.4 62 -1.4 29.5
07:10 1023 30.21 852 25.16 5 41 63 -1.5 29.4
07:15 1023 30.21 852 25.16 5.2 41.3 62 -1.6 29.1
07:20 1023 30.21 852 25.16 5.7 42.3 61 -1.3 29.6
07:25 1023 30.21 852 25.16 6.3 43.3 58 -1.2 29.8
07:30 1023 30.21 852 25.16 6.6 43.9 58 -1.1 30
07:35 1023 30.21 852 25.16 7.1 44.8 57 -0.9 30.4
07:40 1023 30.21 852 25.16 7.6 45.7 55 -0.9 30.4
07:45 1023 30.21 852 25.16 7.7 45.9 54 -0.9 30.3
07:50 1023 30.21 852 25.16 7.9 46.2 53 -1 30.1
07:55 1023 30.21 852 25.16 8.4 47.1 52 -0.9 30.4
08:00 1023 30.21 852 25.16 8.5 47.4 50 -1.2 29.9
08:05 1023 30.21 852 25.16 8.9 48 50 -0.8 30.6
08:10 1023 30.21 852 25.16 9.1 48.4 49 -0.9 30.4
08:15 1023 30.21 852 25.16 9.6 49.4 48 -0.7 30.7
08:20 1023 30.21 852 25.16 10.1 50.2 46 -0.9 30.3
08:25 1023 30.21 852 25.16 11 51.8 43 -1 30.2
08:30 1023 30.21 852 25.16 11.6 52.9 42 -0.8 30.5
08:35 1023 30.21 852 25.16 11.7 53.1 43 -0.3 31.4
08:40 1023 30.21 852 25.16 11.8 53.2 45 0.3 32.6
08:45 1023 30.21 852 25.16 11.6 52.9 45 0.1 32.3
08:50 1023 30.21 852 25.16 12.2 53.9 41 -0.7 30.7
08:55 1023 30.21 852 25.16 12.9 55.3 39 -0.6 31
09:00 1023 30.21 852 25.16 13.7 56.7 36 -1 30.2
09:05 1023 30.21 852 25.16 14.1 57.4 35 -1 30.3
09:10 1023 30.21 852 25.16 14 57.1 36 -0.7 30.8
09:15 1023 30.21 852 25.16 14.3 57.8 34 -1.3 29.7
09:20 1023 30.21 852 25.16 14.2 57.5 35 -1 30.3
09:25 1023 30.21 852 25.16 15 58.9 33 -1.3 29.7
09:30 1023 30.21 852 25.16 15.2 59.3 33 -1.1 30.1
09:35 1023 30.21 852 25.16 14.7 58.4 33 -1.1 29.9
09:40 1023 30.21 852 25.16 15.3 59.5 30 -2.1 28.2
09:45 1023 30.21 852 25.16 15.4 59.8 31 -1.5 29.4
09:50 1023 30.21 852 25.16 15.9 60.6 30 -1.5 29.3
09:55 1023 30.21 852 25.16 15.8 60.5 29 -2.2 28
10:00 1023 30.21 852 25.16 16.4 61.4 28 -1.9 28.5
10:05 1023 30.21 852 25.16 16.7 62 28 -1.9 28.7
10:10 1023 30.21 852 25.16 16.5 61.6 30 -1.1 30
10:15 1023 30.21 852 25.16 15.9 60.5 29 -1.9 28.5
10:20 1022 30.18 852 25.16 16.5 61.7 29 -1.6 29.1
10:25 1022 30.18 852 25.16 16.5 61.6 29 -1.6 29.1
10:30 1022 30.18 852 25.16 16.4 61.5 30 -1.3 29.6
10:35 1022 30.18 852 25.16 16.7 62 28 -1.7 28.9
10:40 1022 30.18 852 25.16 17.2 63 28 -1.3 29.7
10:45 1022 30.18 851 25.13 17.4 63.3 27 -1.5 29.4
10:50 1022 30.18 851 25.13 16.4 61.6 29 -1.5 29.2
10:55 1022 30.18 851 25.13 16.2 61.1 30 -1.1 30
11:00 1022 30.18 851 25.13 16.9 62.3 28 -1.5 29.2
11:05 1022 30.18 851 25.13 17.3 63.2 29 -0.8 30.6
11:10 1022 30.18 851 25.13 17.1 62.8 28 -1.3 29.7
11:15 1022 30.18 851 25.13 17.4 63.4 28 -1 30.1
11:20 1022 30.18 851 25.13 17.2 62.9 29 -0.9 30.4
11:25 1022 30.18 851 25.13 16.9 62.5 29 -1.2 29.9
11:30 1022 30.18 851 25.13 17.1 62.7 29 -1.1 30.1
11:35 1022 30.18 851 25.13 17.2 63 29 -1.1 30.1
11:40 1022 30.18 851 25.13 17.6 63.6 28 -1.2 29.8
11:45 1022 30.18 851 25.13 17.4 63.3 28 -1.1 30.1
11:50 1022 30.18 851 25.13 18.5 65.3 26 -1.1 30.1
11:55 1022 30.18 851 25.13 19 66.2 26 -0.9 30.3
12:00 1022 30.18 851 25.13 19.6 67.3 26 -0.4 31.2
12:05 1021 30.15 851 25.13 18.6 65.4 27 -0.4 31.3
12:10 1021 30.15 851 25.13 18.3 65 27 -1.1 30.1
12:15 1021 30.15 851 25.13 18.6 65.5 25 -1.7 29
12:20 1021 30.15 850 25.1 18.8 65.9 25 -1.3 29.6
12:25 1021 30.15 850 25.1 18.9 66.1 25 -1.4 29.6
12:30 1021 30.15 850 25.1 20.1 68.1 24 -0.7 30.8
12:35 1021 30.15 850 25.1 20.6 69 23 -1.2 29.9
12:40 1021 30.15 850 25.1 20.7 69.3 23 -1.2 29.8
12:45 1021 30.15 850 25.1 20.9 69.6 23 -0.6 30.9
12:50 1021 30.15 850 25.1 20.5 68.9 24 -0.5 31.1
12:55 1021 30.15 850 25.1 20.6 69.1 24 -0.5 31.1
13:00 1021 30.15 850 25.1 20.8 69.5 24 -0.1 31.9
13:05 1021 30.15 850 25.1 20.7 69.3 23 -0.9 30.4
13:10 1021 30.15 850 25.1 20.7 69.3 23 -0.7 30.7
13:15 1020 30.12 850 25.1 20.4 68.8 25 -0.4 31.3
13:20 1020 30.12 850 25.1 20.5 68.8 24 -0.9 30.4
13:25 1020 30.12 850 25.1 21 69.9 24 -0.1 31.8
13:30 1020 30.12 849 25.07 20.7 69.3 24 -0.4 31.3
13:35 1020 30.12 849 25.07 21 69.9 23 -0.8 30.5
13:40 1020 30.12 849 25.07 21.1 70 23 -0.8 30.6
13:45 1020 30.12 849 25.07 20.2 68.4 26 0.1 32.1
13:50 1020 30.12 849 25.07 20.1 68.3 24 -0.9 30.4
13:55 1020 30.12 849 25.07 20.9 69.6 24 -0.2 31.7
14:00 1020 30.12 849 25.07 21.2 70.1 23 -0.7 30.8
14:05 1020 30.12 849 25.07 21.1 70 23 -0.5 31.1
14:10 1020 30.12 849 25.07 20.7 69.2 24 -0.4 31.2
14:15 1020 30.12 849 25.07 20.6 69 23 -1.2 29.8
14:20 1020 30.12 849 25.07 21.1 70 22 -1.4 29.5
14:25 1019 30.09 849 25.07 21.3 70.4 22 -1 30.1
14:30 1019 30.09 849 25.07 21 69.8 23 -0.9 30.4
14:35 1019 30.09 848 25.04 21.3 70.3 23 -0.6 30.9
14:40 1019 30.09 848 25.04 21.5 70.7 20 -1.9 28.6
14:45 1019 30.09 848 25.04 20.9 69.7 21 -2 28.4
14:50 1019 30.09 848 25.04 21.7 71.1 21 -1.6 29.1
14:55 1019 30.09 848 25.04 21.4 70.6 22 -0.7 30.7
15:00 1019 30.09 848 25.04 20.6 69.1 23 -1.3 29.6
15:05 1019 30.09 848 25.04 20.5 68.9 22 -1.7 29
15:10 1019 30.09 848 25.04 21.1 70 21 -2 28.5
15:15 1019 30.09 848 25.04 21.6 70.9 21 -1.6 29.1
15:20 1019 30.09 848 25.04 22.1 71.7 21 -1 30.2
15:25 1019 30.09 848 25.04 21.9 71.4 21 -1.2 29.9
15:30 1019 30.09 848 25.04 21.3 70.3 20 -2.4 27.7
15:35 1019 30.09 848 25.04 21.6 70.8 21 -1.4 29.5
15:40 1019 30.09 848 25.04 20.7 69.2 22 -1.5 29.2
15:45 1019 30.09 848 25.04 20.8 69.5 22 -1.3 29.7
15:50 1018 30.06 848 25.04 20 68.1 22 -1.9 28.5
15:55 1018 30.06 848 25.04 20 67.9 23 -1.8 28.7
16:00 1018 30.06 848 25.04 20.8 69.4 21 -2.2 28
16:05 1018 30.06 848 25.04 22 71.6 20 -2 28.5
16:10 1018 30.06 847 25.01 22.2 71.9 20 -1.6 29
16:15 1018 30.06 847 25.01 21.6 70.9 21 -1.6 29.1
16:20 1018 30.06 847 25.01 21.4 70.5 20 -2 28.4
16:25 1018 30.06 847 25.01 21.2 70.2 21 -1.7 28.9
16:30 1018 30.06 847 25.01 21.2 70.1 20 -2.3 27.9
16:35 1018 30.06 847 25.01 21.4 70.4 20 -2.1 28.3
16:40 1018 30.06 847 25.01 21.7 71 20 -2.2 28
16:45 1018 30.06 847 25.01 21.5 70.8 20 -2.2 28.1
16:50 1018 30.06 847 25.01 21.3 70.3 19 -2.7 27.1
16:55 1018 30.06 847 25.01 21.6 70.9 19 -2.5 27.4
17:00 1018 30.06 847 25.01 22 71.5 19 -2.5 27.6
17:05 1018 30.06 847 25.01 21.6 70.9 19 -2.5 27.5
17:10 1018 30.06 847 25.01 21.5 70.7 20 -2.3 27.9
17:15 1018 30.06 847 25.01 21.1 69.9 20 -2.4 27.8
17:20 1018 30.06 847 25.01 20.5 68.9 22 -1.8 28.8
17:25 1018 30.06 847 25.01 20.2 68.4 22 -2 28.5
17:30 1018 30.06 847 25.01 20.3 68.6 22 -2 28.3
17:35 1018 30.06 847 25.01 20.3 68.5 22 -2.3 27.9
17:40 1018 30.06 847 25.01 20.5 68.9 21 -2.3 27.8
17:45 1018 30.06 847 25.01 20.8 69.4 19 -3.2 26.2
17:50 1018 30.06 847 25.01 21 69.7 20 -2.8 27
17:55 1018 30.06 847 25.01 21 69.7 20 -2.9 26.8
18:00 1018 30.06 847 25.01 20.9 69.7 19 -3.2 26.3
18:05 1018 30.06 847 25.01 20.8 69.4 19 -3.3 26.1
18:10 1017 30.03 847 25.01 20.6 69 20 -3 26.6
18:15 1017 30.03 847 25.01 20.3 68.5 20 -3.1 26.5
18:20 1017 30.03 847 25.01 20 68 20 -3.3 26
18:25 1018 30.06 847 25.01 19.8 67.6 20 -3.4 25.9
18:30 1018 30.06 847 25.01 19.6 67.4 21 -3.1 26.4
18:35 1018 30.06 847 25.01 19.5 67 22 -2.7 27.2
18:40 1018 30.06 847 25.01 19.2 66.6 23 -2.3 27.9
18:45 1018 30.06 847 25.01 19 66.1 24 -2 28.4
18:50 1018 30.06 847 25.01 18.6 65.4 25 -1.8 28.8
18:55 1018 30.06 847 25.01 18.4 65.1 24 -2.4 27.7
19:00 1018 30.06 847 25.01 18.3 64.9 26 -1.5 29.3
19:05 1018 30.06 847 25.01 17.9 64.3 25 -2.3 27.8
19:10 1018 30.06 847 25.01 18.1 64.6 25 -2.3 27.9
19:15 1018 30.06 847 25.01 18.1 64.7 25 -2.1 28.2
19:20 1018 30.06 847 25.01 18 64.5 24 -2.5 27.4
19:25 1018 30.06 847 25.01 18.1 64.6 24 -2.4 27.7
19:30 1018 30.06 847 25.01 17.9 64.2 26 -1.6 29.1
19:35 1018 30.06 847 25.01 17.5 63.5 26 -1.9 28.5
19:40 1018 30.06 847 25.01 17.2 62.9 27 -1.7 29
19:45 1018 30.06 847 25.01 16.8 62.2 28 -1.7 29
19:50 1018 30.06 847 25.01 16.5 61.7 28 -1.7 28.9
19:55 1018 30.06 847 25.01 16.6 61.8 28 -1.9 28.5
20:00 1018 30.06 847 25.01 16.6 61.9 28 -1.9 28.6
20:05 1018 30.06 847 25.01 16.4 61.6 28 -1.8 28.7
20:10 1018 30.06 847 25.01 16.3 61.4 28 -2.1 28.3
20:15 1018 30.06 847 25.01 16.2 61.2 29 -1.5 29.2
20:20 1018 30.06 847 25.01 15.9 60.5 30 -1.7 29
20:25 1018 30.06 847 25.01 15.8 60.4 30 -1.7 28.9
20:30 1018 30.06 847 25.01 15.7 60.2 30 -1.7 28.9
20:35 1018 30.06 847 25.01 15.7 60.2 30 -1.8 28.8
20:40 1018 30.06 847 25.01 15.8 60.4 30 -1.7 29
20:45 1018 30.06 847 25.01 15.6 60 30 -1.6 29.1
20:50 1018 30.06 847 25.01 15.4 59.7 31 -1.8 28.8
20:55 1018 30.06 847 25.01 15.2 59.3 31 -1.6 29.1
21:00 1018 30.06 847 25.01 15 59 31 -1.8 28.8
21:05 1018 30.06 847 25.01 15 59 31 -1.9 28.6
21:10 1018 30.06 847 25.01 15 59 31 -1.9 28.5
21:15 1018 30.06 847 25.01 15 59 32 -1.4 29.4
21:20 1018 30.06 847 25.01 14.3 57.7 34 -1.3 29.7
21:25 1018 30.06 847 25.01 13.7 56.6 36 -1.1 30
21:30 1018 30.06 847 25.01 13.3 55.9 37 -1.2 29.8
21:35 1018 30.06 847 25.01 13.2 55.7 36 -1.4 29.5
21:40 1018 30.06 847 25.01 13 55.5 36 -1.5 29.3
21:45 1018 30.06 847 25.01 13 55.4 35 -2 28.5
21:50 1018 30.06 847 25.01 13 55.5 36 -1.7 29
21:55 1018 30.06 847 25.01 12.5 54.4 39 -1 30.1
22:00 1018 30.06 847 25.01 12.1 53.8 37 -2 28.5
22:05 1018 30.06 847 25.01 12.4 54.3 38 -1.5 29.4
22:10 1018 30.06 847 25.01 12.1 53.7 39 -1.3 29.7
22:15 1018 30.06 847 25.01 11.9 53.3 41 -1 30.2
22:20 1018 30.06 847 25.01 11.5 52.8 41 -1.1 30.1
22:25 1018 30.06 847 25.01 11.7 53 40 -1.2 29.8
22:30 1018 30.06 847 25.01 12 53.6 38 -1.7 28.9
22:35 1018 30.06 847 25.01 12.6 54.6 37 -1.7 29
22:40 1018 30.06 847 25.01 12.7 54.8 36 -1.8 28.8
22:45 1018 30.06 847 25.01 12.9 55.1 36 -1.8 28.8
22:50 1018 30.06 847 25.01 12.8 55 36 -1.7 29
22:55 1018 30.06 847 25.01 12.5 54.5 37 -1.7 29
23:00 1018 30.06 847 25.01 12.3 54.1 38 -1.7 28.9
23:05 1018 30.06 847 25.01 12.1 53.7 39 -1.5 29.2
23:10 1018 30.06 847 25.01 11.9 53.4 38 -1.8 28.7
23:15 1018 30.06 847 25.01 12 53.6 37 -2.3 27.9
23:20 1018 30.06 847 25.01 12.4 54.2 37 -1.8 28.8
23:25 1018 30.06 847 25.01 11.9 53.4 39 -1.5 29.3
23:30 1017 30.03 847 25.01 12 53.5 35 -2.9 26.9
23:35 1017 30.03 847 25.01 12.8 55.1 35 -2.3 27.9
23:40 1017 30.03 847 25.01 12.8 55.1 35 -2.1 28.3
23:45 1017 30.03 847 25.01 12.8 55.1 36 -1.9 28.6
23:50 1017 30.03 847 25.01 12.4 54.3 37 -1.8 28.7
23:55 1017 30.03 846 24.98 12.3 54.1 37 -2 28.4
24:00 1017 30.03 846 24.98 12.2 53.9 37 -2 28.4